sensor_id;sensor_type;location;lat;lon;timestamp;P1;durP1;ratioP1;P2;durP2;ratioP2
8060;SDS011;4073;42.626;25.386;2022-10-16T00:00:34;10.50;;;7.53;;
8060;SDS011;4073;42.626;25.386;2022-10-16T00:03:02;8.07;;;7.27;;
8060;SDS011;4073;42.626;25.386;2022-10-16T00:05:30;9.83;;;8.00;;
8060;SDS011;4073;42.626;25.386;2022-10-16T00:07:56;11.43;;;7.70;;
8060;SDS011;4073;42.626;25.386;2022-10-16T00:10:22;9.53;;;8.03;;
8060;SDS011;4073;42.626;25.386;2022-10-16T00:12:47;10.53;;;8.20;;
8060;SDS011;4073;42.626;25.386;2022-10-16T00:15:13;11.53;;;7.57;;
8060;SDS011;4073;42.626;25.386;2022-10-16T00:17:39;11.40;;;10.30;;
8060;SDS011;4073;42.626;25.386;2022-10-16T00:20:05;15.23;;;13.20;;
8060;SDS011;4073;42.626;25.386;2022-10-16T00:22:31;14.73;;;13.27;;
8060;SDS011;4073;42.626;25.386;2022-10-16T00:24:56;9.40;;;8.17;;
8060;SDS011;4073;42.626;25.386;2022-10-16T00:27:22;7.73;;;6.73;;
8060;SDS011;4073;42.626;25.386;2022-10-16T00:29:50;7.93;;;7.13;;
8060;SDS011;4073;42.626;25.386;2022-10-16T00:32:17;7.57;;;6.93;;
8060;SDS011;4073;42.626;25.386;2022-10-16T00:34:45;9.10;;;8.20;;
8060;SDS011;4073;42.626;25.386;2022-10-16T00:37:12;9.80;;;7.57;;
8060;SDS011;4073;42.626;25.386;2022-10-16T00:39:38;9.20;;;8.07;;
8060;SDS011;4073;42.626;25.386;2022-10-16T00:42:03;7.20;;;6.50;;
8060;SDS011;4073;42.626;25.386;2022-10-16T00:44:45;10.77;;;7.83;;
8060;SDS011;4073;42.626;25.386;2022-10-16T00:47:13;8.30;;;6.77;;
8060;SDS011;4073;42.626;25.386;2022-10-16T00:49:53;9.50;;;7.53;;
8060;SDS011;4073;42.626;25.386;2022-10-16T00:52:23;7.47;;;6.70;;
8060;SDS011;4073;42.626;25.386;2022-10-16T00:54:49;8.20;;;6.57;;
8060;SDS011;4073;42.626;25.386;2022-10-16T00:57:17;8.87;;;7.63;;
8060;SDS011;4073;42.626;25.386;2022-10-16T00:59:43;8.73;;;7.00;;
8060;SDS011;4073;42.626;25.386;2022-10-16T01:02:10;8.50;;;7.13;;
8060;SDS011;4073;42.626;25.386;2022-10-16T01:04:39;8.30;;;6.53;;
8060;SDS011;4073;42.626;25.386;2022-10-16T01:10:02;10.43;;;7.90;;
8060;SDS011;4073;42.626;25.386;2022-10-16T01:15:27;9.60;;;7.80;;
8060;SDS011;4073;42.626;25.386;2022-10-16T01:23:07;10.27;;;7.47;;
8060;SDS011;4073;42.626;25.386;2022-10-16T01:28:45;8.70;;;7.40;;
8060;SDS011;4073;42.626;25.386;2022-10-16T01:31:12;10.13;;;7.43;;
8060;SDS011;4073;42.626;25.386;2022-10-16T01:33:44;13.87;;;6.70;;
8060;SDS011;4073;42.626;25.386;2022-10-16T01:36:13;12.37;;;8.07;;
8060;SDS011;4073;42.626;25.386;2022-10-16T01:38:42;9.67;;;7.17;;
8060;SDS011;4073;42.626;25.386;2022-10-16T01:41:15;9.87;;;7.17;;
8060;SDS011;4073;42.626;25.386;2022-10-16T01:43:54;9.43;;;7.50;;
8060;SDS011;4073;42.626;25.386;2022-10-16T01:46:21;9.23;;;7.33;;
8060;SDS011;4073;42.626;25.386;2022-10-16T01:48:48;7.77;;;6.63;;
8060;SDS011;4073;42.626;25.386;2022-10-16T01:51:16;8.50;;;7.33;;
8060;SDS011;4073;42.626;25.386;2022-10-16T01:53:48;8.03;;;7.27;;
8060;SDS011;4073;42.626;25.386;2022-10-16T01:56:17;9.20;;;8.37;;
8060;SDS011;4073;42.626;25.386;2022-10-16T01:58:49;11.93;;;8.97;;
8060;SDS011;4073;42.626;25.386;2022-10-16T02:01:26;8.67;;;7.77;;
8060;SDS011;4073;42.626;25.386;2022-10-16T02:03:56;9.27;;;7.83;;
8060;SDS011;4073;42.626;25.386;2022-10-16T02:06:24;10.87;;;7.83;;
8060;SDS011;4073;42.626;25.386;2022-10-16T02:08:50;8.97;;;7.93;;
8060;SDS011;4073;42.626;25.386;2022-10-16T02:11:16;9.33;;;7.20;;
8060;SDS011;4073;42.626;25.386;2022-10-16T02:13:43;8.50;;;7.63;;
8060;SDS011;4073;42.626;25.386;2022-10-16T02:16:13;9.00;;;7.87;;
8060;SDS011;4073;42.626;25.386;2022-10-16T02:18:40;8.40;;;7.60;;
8060;SDS011;4073;42.626;25.386;2022-10-16T02:26:12;9.03;;;7.63;;
8060;SDS011;4073;42.626;25.386;2022-10-16T02:28:46;11.30;;;7.80;;
8060;SDS011;4073;42.626;25.386;2022-10-16T02:31:21;11.17;;;7.93;;
8060;SDS011;4073;42.626;25.386;2022-10-16T02:33:52;10.63;;;8.53;;
8060;SDS011;4073;42.626;25.386;2022-10-16T02:36:20;9.00;;;7.63;;
8060;SDS011;4073;42.626;25.386;2022-10-16T02:38:46;10.13;;;9.10;;
8060;SDS011;4073;42.626;25.386;2022-10-16T02:41:12;10.23;;;8.40;;
8060;SDS011;4073;42.626;25.386;2022-10-16T02:43:39;8.90;;;8.00;;
8060;SDS011;4073;42.626;25.386;2022-10-16T02:46:04;8.70;;;7.80;;
8060;SDS011;4073;42.626;25.386;2022-10-16T02:48:30;7.90;;;7.20;;
8060;SDS011;4073;42.626;25.386;2022-10-16T02:50:55;8.53;;;7.70;;
8060;SDS011;4073;42.626;25.386;2022-10-16T02:53:22;8.00;;;7.20;;
8060;SDS011;4073;42.626;25.386;2022-10-16T02:55:47;9.67;;;8.00;;
8060;SDS011;4073;42.626;25.386;2022-10-16T02:58:13;9.40;;;7.00;;
8060;SDS011;4073;42.626;25.386;2022-10-16T03:00:38;9.43;;;8.43;;
8060;SDS011;4073;42.626;25.386;2022-10-16T03:03:04;8.53;;;7.67;;
8060;SDS011;4073;42.626;25.386;2022-10-16T03:05:29;10.27;;;7.93;;
8060;SDS011;4073;42.626;25.386;2022-10-16T03:07:55;9.40;;;7.80;;
8060;SDS011;4073;42.626;25.386;2022-10-16T03:10:20;10.33;;;8.43;;
8060;SDS011;4073;42.626;25.386;2022-10-16T03:12:46;9.50;;;8.13;;
8060;SDS011;4073;42.626;25.386;2022-10-16T03:15:11;8.93;;;8.03;;
8060;SDS011;4073;42.626;25.386;2022-10-16T03:17:37;9.27;;;8.20;;
8060;SDS011;4073;42.626;25.386;2022-10-16T03:20:02;9.03;;;7.67;;
8060;SDS011;4073;42.626;25.386;2022-10-16T03:22:28;7.53;;;6.83;;
8060;SDS011;4073;42.626;25.386;2022-10-16T03:24:54;9.00;;;8.10;;
8060;SDS011;4073;42.626;25.386;2022-10-16T03:27:19;8.27;;;7.47;;
8060;SDS011;4073;42.626;25.386;2022-10-16T03:29:45;8.20;;;7.40;;
8060;SDS011;4073;42.626;25.386;2022-10-16T03:32:11;11.13;;;8.17;;
8060;SDS011;4073;42.626;25.386;2022-10-16T03:34:36;9.13;;;8.10;;
8060;SDS011;4073;42.626;25.386;2022-10-16T03:37:01;9.63;;;8.10;;
8060;SDS011;4073;42.626;25.386;2022-10-16T03:39:27;9.07;;;6.80;;
8060;SDS011;4073;42.626;25.386;2022-10-16T03:41:52;8.70;;;7.90;;
8060;SDS011;4073;42.626;25.386;2022-10-16T03:44:18;9.70;;;8.37;;
8060;SDS011;4073;42.626;25.386;2022-10-16T03:46:43;13.33;;;8.03;;
8060;SDS011;4073;42.626;25.386;2022-10-16T03:49:09;9.80;;;7.63;;
8060;SDS011;4073;42.626;25.386;2022-10-16T03:51:34;9.57;;;8.57;;
8060;SDS011;4073;42.626;25.386;2022-10-16T03:54:00;8.23;;;7.43;;
8060;SDS011;4073;42.626;25.386;2022-10-16T03:56:25;8.77;;;7.83;;
8060;SDS011;4073;42.626;25.386;2022-10-16T03:58:51;8.87;;;7.77;;
8060;SDS011;4073;42.626;25.386;2022-10-16T04:01:16;8.50;;;7.03;;
8060;SDS011;4073;42.626;25.386;2022-10-16T04:03:42;9.10;;;8.07;;
8060;SDS011;4073;42.626;25.386;2022-10-16T04:06:07;10.07;;;8.63;;
8060;SDS011;4073;42.626;25.386;2022-10-16T04:08:33;9.93;;;8.13;;
8060;SDS011;4073;42.626;25.386;2022-10-16T04:11:01;11.83;;;8.13;;
8060;SDS011;4073;42.626;25.386;2022-10-16T04:13:27;11.63;;;8.70;;
8060;SDS011;4073;42.626;25.386;2022-10-16T04:15:52;11.30;;;7.37;;
8060;SDS011;4073;42.626;25.386;2022-10-16T04:18:18;10.60;;;8.33;;
8060;SDS011;4073;42.626;25.386;2022-10-16T04:20:43;10.13;;;7.77;;
8060;SDS011;4073;42.626;25.386;2022-10-16T04:23:09;10.13;;;7.90;;
8060;SDS011;4073;42.626;25.386;2022-10-16T04:25:34;9.40;;;8.10;;
8060;SDS011;4073;42.626;25.386;2022-10-16T04:28:00;8.17;;;7.37;;
8060;SDS011;4073;42.626;25.386;2022-10-16T04:30:25;10.77;;;8.53;;
8060;SDS011;4073;42.626;25.386;2022-10-16T04:32:51;11.00;;;8.50;;
8060;SDS011;4073;42.626;25.386;2022-10-16T04:35:17;11.37;;;8.00;;
8060;SDS011;4073;42.626;25.386;2022-10-16T04:37:44;8.73;;;7.83;;
8060;SDS011;4073;42.626;25.386;2022-10-16T04:40:10;9.30;;;7.50;;
8060;SDS011;4073;42.626;25.386;2022-10-16T04:42:35;11.57;;;7.73;;
8060;SDS011;4073;42.626;25.386;2022-10-16T04:45:01;8.13;;;7.33;;
8060;SDS011;4073;42.626;25.386;2022-10-16T04:47:27;10.23;;;7.43;;
8060;SDS011;4073;42.626;25.386;2022-10-16T04:49:53;10.80;;;8.60;;
8060;SDS011;4073;42.626;25.386;2022-10-16T04:52:19;13.13;;;8.40;;
8060;SDS011;4073;42.626;25.386;2022-10-16T04:54:46;8.50;;;7.47;;
8060;SDS011;4073;42.626;25.386;2022-10-16T04:57:12;9.90;;;8.90;;
8060;SDS011;4073;42.626;25.386;2022-10-16T04:59:37;8.93;;;7.93;;
8060;SDS011;4073;42.626;25.386;2022-10-16T05:02:03;10.17;;;8.40;;
8060;SDS011;4073;42.626;25.386;2022-10-16T05:04:28;8.97;;;8.07;;
8060;SDS011;4073;42.626;25.386;2022-10-16T05:06:54;9.00;;;7.77;;
8060;SDS011;4073;42.626;25.386;2022-10-16T05:09:19;9.63;;;7.57;;
8060;SDS011;4073;42.626;25.386;2022-10-16T05:11:45;9.20;;;7.20;;
8060;SDS011;4073;42.626;25.386;2022-10-16T05:14:11;10.10;;;7.83;;
8060;SDS011;4073;42.626;25.386;2022-10-16T05:16:36;11.20;;;8.60;;
8060;SDS011;4073;42.626;25.386;2022-10-16T05:19:02;7.80;;;6.90;;
8060;SDS011;4073;42.626;25.386;2022-10-16T05:21:27;10.17;;;7.47;;
8060;SDS011;4073;42.626;25.386;2022-10-16T05:23:53;9.97;;;7.17;;
8060;SDS011;4073;42.626;25.386;2022-10-16T05:26:20;10.33;;;8.00;;
8060;SDS011;4073;42.626;25.386;2022-10-16T05:28:46;10.73;;;8.33;;
8060;SDS011;4073;42.626;25.386;2022-10-16T05:31:11;11.30;;;9.07;;
8060;SDS011;4073;42.626;25.386;2022-10-16T05:33:37;9.00;;;8.03;;
8060;SDS011;4073;42.626;25.386;2022-10-16T05:36:03;8.67;;;7.47;;
8060;SDS011;4073;42.626;25.386;2022-10-16T05:38:31;8.40;;;7.60;;
8060;SDS011;4073;42.626;25.386;2022-10-16T05:40:56;10.13;;;7.00;;
8060;SDS011;4073;42.626;25.386;2022-10-16T05:43:22;8.40;;;7.50;;
8060;SDS011;4073;42.626;25.386;2022-10-16T05:45:57;10.83;;;6.57;;
8060;SDS011;4073;42.626;25.386;2022-10-16T05:48:23;7.40;;;6.63;;
8060;SDS011;4073;42.626;25.386;2022-10-16T05:50:59;8.73;;;6.53;;
8060;SDS011;4073;42.626;25.386;2022-10-16T05:53:26;8.00;;;5.80;;
8060;SDS011;4073;42.626;25.386;2022-10-16T05:55:53;7.23;;;6.00;;
8060;SDS011;4073;42.626;25.386;2022-10-16T05:58:20;16.70;;;9.20;;
8060;SDS011;4073;42.626;25.386;2022-10-16T06:00:52;7.00;;;6.30;;
8060;SDS011;4073;42.626;25.386;2022-10-16T06:03:22;11.37;;;6.97;;
8060;SDS011;4073;42.626;25.386;2022-10-16T06:05:47;8.60;;;6.93;;
8060;SDS011;4073;42.626;25.386;2022-10-16T06:08:13;8.90;;;5.70;;
8060;SDS011;4073;42.626;25.386;2022-10-16T06:10:38;8.77;;;5.33;;
8060;SDS011;4073;42.626;25.386;2022-10-16T06:13:04;8.17;;;5.57;;
8060;SDS011;4073;42.626;25.386;2022-10-16T06:15:29;5.87;;;4.83;;
8060;SDS011;4073;42.626;25.386;2022-10-16T06:17:55;5.40;;;4.90;;
8060;SDS011;4073;42.626;25.386;2022-10-16T06:20:20;6.27;;;5.20;;
8060;SDS011;4073;42.626;25.386;2022-10-16T06:22:46;5.70;;;5.20;;
8060;SDS011;4073;42.626;25.386;2022-10-16T06:25:11;5.37;;;4.60;;
8060;SDS011;4073;42.626;25.386;2022-10-16T06:27:38;5.87;;;5.20;;
8060;SDS011;4073;42.626;25.386;2022-10-16T06:30:05;5.53;;;5.03;;
8060;SDS011;4073;42.626;25.386;2022-10-16T06:32:31;5.43;;;4.87;;
8060;SDS011;4073;42.626;25.386;2022-10-16T06:34:57;6.10;;;5.50;;
8060;SDS011;4073;42.626;25.386;2022-10-16T06:37:22;7.13;;;4.73;;
8060;SDS011;4073;42.626;25.386;2022-10-16T06:39:48;7.73;;;4.90;;
8060;SDS011;4073;42.626;25.386;2022-10-16T06:42:13;5.63;;;5.13;;
8060;SDS011;4073;42.626;25.386;2022-10-16T06:44:39;5.23;;;4.73;;
8060;SDS011;4073;42.626;25.386;2022-10-16T06:47:04;5.87;;;4.67;;
8060;SDS011;4073;42.626;25.386;2022-10-16T06:49:30;5.57;;;4.97;;
8060;SDS011;4073;42.626;25.386;2022-10-16T06:51:55;5.90;;;4.70;;
8060;SDS011;4073;42.626;25.386;2022-10-16T06:54:20;8.27;;;5.13;;
8060;SDS011;4073;42.626;25.386;2022-10-16T06:56:46;5.07;;;4.67;;
8060;SDS011;4073;42.626;25.386;2022-10-16T06:59:11;6.03;;;4.63;;
8060;SDS011;4073;42.626;25.386;2022-10-16T07:01:37;11.00;;;6.50;;
8060;SDS011;4073;42.626;25.386;2022-10-16T07:04:02;6.50;;;5.23;;
8060;SDS011;4073;42.626;25.386;2022-10-16T07:06:30;5.70;;;4.70;;
8060;SDS011;4073;42.626;25.386;2022-10-16T07:08:57;5.23;;;4.73;;
8060;SDS011;4073;42.626;25.386;2022-10-16T07:11:23;6.33;;;5.23;;
8060;SDS011;4073;42.626;25.386;2022-10-16T07:13:49;7.10;;;5.23;;
8060;SDS011;4073;42.626;25.386;2022-10-16T07:16:20;5.73;;;5.27;;
8060;SDS011;4073;42.626;25.386;2022-10-16T07:18:47;6.00;;;5.37;;
8060;SDS011;4073;42.626;25.386;2022-10-16T07:21:15;6.07;;;5.47;;
8060;SDS011;4073;42.626;25.386;2022-10-16T07:23:45;5.37;;;4.87;;
8060;SDS011;4073;42.626;25.386;2022-10-16T07:26:15;5.23;;;4.73;;
8060;SDS011;4073;42.626;25.386;2022-10-16T07:28:40;5.93;;;4.97;;
8060;SDS011;4073;42.626;25.386;2022-10-16T07:31:09;7.17;;;4.90;;
8060;SDS011;4073;42.626;25.386;2022-10-16T07:33:37;5.60;;;5.00;;
8060;SDS011;4073;42.626;25.386;2022-10-16T07:36:03;5.87;;;5.20;;
8060;SDS011;4073;42.626;25.386;2022-10-16T07:38:29;7.13;;;5.63;;
8060;SDS011;4073;42.626;25.386;2022-10-16T07:40:55;6.80;;;5.20;;
8060;SDS011;4073;42.626;25.386;2022-10-16T07:43:45;7.30;;;5.77;;
8060;SDS011;4073;42.626;25.386;2022-10-16T07:46:11;7.07;;;5.47;;
8060;SDS011;4073;42.626;25.386;2022-10-16T07:48:37;6.53;;;5.90;;
8060;SDS011;4073;42.626;25.386;2022-10-16T07:51:04;6.13;;;5.63;;
8060;SDS011;4073;42.626;25.386;2022-10-16T07:53:31;6.63;;;6.03;;
8060;SDS011;4073;42.626;25.386;2022-10-16T07:56:01;7.80;;;7.00;;
8060;SDS011;4073;42.626;25.386;2022-10-16T07:58:29;9.27;;;7.40;;
8060;SDS011;4073;42.626;25.386;2022-10-16T08:00:55;8.83;;;7.27;;
8060;SDS011;4073;42.626;25.386;2022-10-16T08:03:21;8.33;;;7.40;;
8060;SDS011;4073;42.626;25.386;2022-10-16T08:05:47;9.00;;;8.10;;
8060;SDS011;4073;42.626;25.386;2022-10-16T08:08:13;9.00;;;8.10;;
8060;SDS011;4073;42.626;25.386;2022-10-16T08:10:40;8.90;;;8.00;;
8060;SDS011;4073;42.626;25.386;2022-10-16T08:13:06;8.40;;;7.60;;
8060;SDS011;4073;42.626;25.386;2022-10-16T08:15:31;9.30;;;8.00;;
8060;SDS011;4073;42.626;25.386;2022-10-16T08:18:00;9.40;;;8.40;;
8060;SDS011;4073;42.626;25.386;2022-10-16T08:20:28;11.73;;;7.57;;
8060;SDS011;4073;42.626;25.386;2022-10-16T08:22:55;8.57;;;7.77;;
8060;SDS011;4073;42.626;25.386;2022-10-16T08:25:21;8.90;;;7.93;;
8060;SDS011;4073;42.626;25.386;2022-10-16T08:27:48;8.47;;;7.43;;
8060;SDS011;4073;42.626;25.386;2022-10-16T08:30:14;7.90;;;7.20;;
8060;SDS011;4073;42.626;25.386;2022-10-16T08:32:40;8.57;;;7.70;;
8060;SDS011;4073;42.626;25.386;2022-10-16T08:35:12;7.93;;;7.00;;
8060;SDS011;4073;42.626;25.386;2022-10-16T08:37:39;8.77;;;7.67;;
8060;SDS011;4073;42.626;25.386;2022-10-16T08:40:05;7.63;;;6.93;;
8060;SDS011;4073;42.626;25.386;2022-10-16T08:50:26;7.87;;;6.33;;
8060;SDS011;4073;42.626;25.386;2022-10-16T08:52:54;7.10;;;6.40;;
8060;SDS011;4073;42.626;25.386;2022-10-16T08:58:14;6.87;;;6.17;;
8060;SDS011;4073;42.626;25.386;2022-10-16T09:00:45;12.37;;;6.80;;
8060;SDS011;4073;42.626;25.386;2022-10-16T09:06:08;7.30;;;6.60;;
8060;SDS011;4073;42.626;25.386;2022-10-16T09:22:51;7.57;;;6.53;;
8060;SDS011;4073;42.626;25.386;2022-10-16T09:25:25;7.60;;;6.13;;
8060;SDS011;4073;42.626;25.386;2022-10-16T09:27:52;7.80;;;6.03;;
8060;SDS011;4073;42.626;25.386;2022-10-16T09:30:19;6.50;;;5.77;;
8060;SDS011;4073;42.626;25.386;2022-10-16T09:32:47;8.17;;;6.17;;
8060;SDS011;4073;42.626;25.386;2022-10-16T09:38:05;7.73;;;6.57;;
8060;SDS011;4073;42.626;25.386;2022-10-16T09:45:37;7.70;;;6.97;;
8060;SDS011;4073;42.626;25.386;2022-10-16T09:48:10;7.47;;;6.20;;
8060;SDS011;4073;42.626;25.386;2022-10-16T09:50:37;6.90;;;6.20;;
8060;SDS011;4073;42.626;25.386;2022-10-16T09:53:13;6.67;;;6.07;;
8060;SDS011;4073;42.626;25.386;2022-10-16T09:55:49;8.17;;;6.33;;
8060;SDS011;4073;42.626;25.386;2022-10-16T09:58:16;6.93;;;6.23;;
8060;SDS011;4073;42.626;25.386;2022-10-16T10:00:42;7.83;;;6.53;;
8060;SDS011;4073;42.626;25.386;2022-10-16T10:03:23;7.00;;;5.80;;
8060;SDS011;4073;42.626;25.386;2022-10-16T10:08:52;7.33;;;5.97;;
8060;SDS011;4073;42.626;25.386;2022-10-16T10:11:39;7.17;;;6.10;;
8060;SDS011;4073;42.626;25.386;2022-10-16T10:14:06;10.87;;;6.90;;
8060;SDS011;4073;42.626;25.386;2022-10-16T10:16:40;9.40;;;7.70;;
8060;SDS011;4073;42.626;25.386;2022-10-16T10:19:09;9.60;;;6.40;;
8060;SDS011;4073;42.626;25.386;2022-10-16T10:21:40;8.23;;;6.20;;
8060;SDS011;4073;42.626;25.386;2022-10-16T10:24:09;6.63;;;5.90;;
8060;SDS011;4073;42.626;25.386;2022-10-16T10:26:35;6.77;;;5.60;;
8060;SDS011;4073;42.626;25.386;2022-10-16T10:32:06;6.23;;;5.50;;
8060;SDS011;4073;42.626;25.386;2022-10-16T10:37:20;6.50;;;5.47;;
8060;SDS011;4073;42.626;25.386;2022-10-16T10:42:59;7.53;;;5.10;;
8060;SDS011;4073;42.626;25.386;2022-10-16T10:45:47;6.87;;;5.13;;
8060;SDS011;4073;42.626;25.386;2022-10-16T10:51:01;9.23;;;6.90;;
8060;SDS011;4073;42.626;25.386;2022-10-16T10:56:18;5.33;;;4.83;;
8060;SDS011;4073;42.626;25.386;2022-10-16T10:59:08;6.27;;;5.77;;
8060;SDS011;4073;42.626;25.386;2022-10-16T11:06:59;7.27;;;5.77;;
8060;SDS011;4073;42.626;25.386;2022-10-16T11:09:42;7.57;;;6.23;;
8060;SDS011;4073;42.626;25.386;2022-10-16T11:14:49;5.97;;;5.37;;
8060;SDS011;4073;42.626;25.386;2022-10-16T11:17:39;8.43;;;5.73;;
8060;SDS011;4073;42.626;25.386;2022-10-16T11:22:56;7.07;;;6.17;;
8060;SDS011;4073;42.626;25.386;2022-10-16T11:33:47;6.17;;;5.53;;
8060;SDS011;4073;42.626;25.386;2022-10-16T11:36:22;7.90;;;6.40;;
8060;SDS011;4073;42.626;25.386;2022-10-16T11:44:19;5.83;;;5.27;;
8060;SDS011;4073;42.626;25.386;2022-10-16T11:46:58;5.23;;;4.53;;
8060;SDS011;4073;42.626;25.386;2022-10-16T11:49:46;7.03;;;5.10;;
8060;SDS011;4073;42.626;25.386;2022-10-16T11:52:23;5.87;;;5.27;;
8060;SDS011;4073;42.626;25.386;2022-10-16T11:54:55;6.10;;;5.50;;
8060;SDS011;4073;42.626;25.386;2022-10-16T11:57:29;6.20;;;4.70;;
8060;SDS011;4073;42.626;25.386;2022-10-16T12:00:02;8.90;;;5.17;;
8060;SDS011;4073;42.626;25.386;2022-10-16T12:08:12;6.67;;;4.30;;
8060;SDS011;4073;42.626;25.386;2022-10-16T12:10:41;7.83;;;3.83;;
8060;SDS011;4073;42.626;25.386;2022-10-16T12:18:42;5.53;;;4.50;;
8060;SDS011;4073;42.626;25.386;2022-10-16T12:21:09;5.40;;;4.90;;
8060;SDS011;4073;42.626;25.386;2022-10-16T12:23:51;7.07;;;5.53;;
8060;SDS011;4073;42.626;25.386;2022-10-16T12:28:52;5.90;;;4.87;;
8060;SDS011;4073;42.626;25.386;2022-10-16T12:31:18;5.40;;;4.90;;
8060;SDS011;4073;42.626;25.386;2022-10-16T12:33:57;8.27;;;4.73;;
8060;SDS011;4073;42.626;25.386;2022-10-16T12:36:29;6.60;;;4.70;;
8060;SDS011;4073;42.626;25.386;2022-10-16T12:38:57;6.83;;;5.03;;
8060;SDS011;4073;42.626;25.386;2022-10-16T12:41:27;5.17;;;4.67;;
8060;SDS011;4073;42.626;25.386;2022-10-16T12:43:53;4.40;;;4.00;;
8060;SDS011;4073;42.626;25.386;2022-10-16T12:48:44;8.13;;;4.30;;
8060;SDS011;4073;42.626;25.386;2022-10-16T12:53:45;5.30;;;3.90;;
8060;SDS011;4073;42.626;25.386;2022-10-16T13:10:54;2.20;;;1.90;;
8060;SDS011;4073;42.626;25.386;2022-10-16T13:19:00;3.30;;;2.40;;
8060;SDS011;4073;42.626;25.386;2022-10-16T13:21:46;6.33;;;2.40;;
8060;SDS011;4073;42.626;25.386;2022-10-16T13:27:03;6.13;;;2.50;;
8060;SDS011;4073;42.626;25.386;2022-10-16T13:29:38;2.90;;;2.30;;
8060;SDS011;4073;42.626;25.386;2022-10-16T13:32:07;3.30;;;2.60;;
8060;SDS011;4073;42.626;25.386;2022-10-16T13:34:41;2.40;;;2.20;;
8060;SDS011;4073;42.626;25.386;2022-10-16T13:37:17;5.10;;;2.57;;
8060;SDS011;4073;42.626;25.386;2022-10-16T13:39:47;4.67;;;2.90;;
8060;SDS011;4073;42.626;25.386;2022-10-16T13:42:34;3.53;;;2.47;;
8060;SDS011;4073;42.626;25.386;2022-10-16T13:44:58;2.20;;;1.90;;
8060;SDS011;4073;42.626;25.386;2022-10-16T13:47:25;3.23;;;2.93;;
8060;SDS011;4073;42.626;25.386;2022-10-16T13:49:59;3.33;;;3.00;;
8060;SDS011;4073;42.626;25.386;2022-10-16T13:52:26;3.70;;;2.77;;
8060;SDS011;4073;42.626;25.386;2022-10-16T13:54:52;4.73;;;2.40;;
8060;SDS011;4073;42.626;25.386;2022-10-16T13:57:17;6.60;;;3.07;;
8060;SDS011;4073;42.626;25.386;2022-10-16T13:59:43;3.47;;;2.53;;
8060;SDS011;4073;42.626;25.386;2022-10-16T14:02:19;2.77;;;2.57;;
8060;SDS011;4073;42.626;25.386;2022-10-16T14:04:55;3.03;;;2.50;;
8060;SDS011;4073;42.626;25.386;2022-10-16T14:07:25;10.23;;;4.90;;
8060;SDS011;4073;42.626;25.386;2022-10-16T14:09:53;5.83;;;4.10;;
8060;SDS011;4073;42.626;25.386;2022-10-16T14:12:19;3.23;;;2.90;;
8060;SDS011;4073;42.626;25.386;2022-10-16T14:14:47;4.53;;;3.07;;
8060;SDS011;4073;42.626;25.386;2022-10-16T14:17:16;7.37;;;3.20;;
8060;SDS011;4073;42.626;25.386;2022-10-16T14:19:45;4.70;;;2.87;;
8060;SDS011;4073;42.626;25.386;2022-10-16T14:27:43;7.17;;;3.37;;
8060;SDS011;4073;42.626;25.386;2022-10-16T14:30:16;3.50;;;3.20;;
8060;SDS011;4073;42.626;25.386;2022-10-16T14:32:57;4.00;;;3.20;;
8060;SDS011;4073;42.626;25.386;2022-10-16T14:37:57;3.80;;;3.43;;
8060;SDS011;4073;42.626;25.386;2022-10-16T14:40:25;5.07;;;2.97;;
8060;SDS011;4073;42.626;25.386;2022-10-16T14:42:58;5.43;;;3.57;;
8060;SDS011;4073;42.626;25.386;2022-10-16T14:45:27;4.40;;;3.30;;
8060;SDS011;4073;42.626;25.386;2022-10-16T14:47:58;3.83;;;3.47;;
8060;SDS011;4073;42.626;25.386;2022-10-16T14:50:26;4.27;;;3.30;;
8060;SDS011;4073;42.626;25.386;2022-10-16T14:52:51;4.40;;;3.43;;
8060;SDS011;4073;42.626;25.386;2022-10-16T14:55:17;4.90;;;3.87;;
8060;SDS011;4073;42.626;25.386;2022-10-16T14:57:43;6.13;;;4.40;;
8060;SDS011;4073;42.626;25.386;2022-10-16T15:00:15;6.07;;;3.30;;
8060;SDS011;4073;42.626;25.386;2022-10-16T15:02:43;6.43;;;4.93;;
8060;SDS011;4073;42.626;25.386;2022-10-16T15:07:39;6.23;;;4.17;;
8060;SDS011;4073;42.626;25.386;2022-10-16T15:10:05;4.97;;;3.13;;
8060;SDS011;4073;42.626;25.386;2022-10-16T15:12:30;4.93;;;3.63;;
8060;SDS011;4073;42.626;25.386;2022-10-16T15:14:56;4.60;;;3.83;;
8060;SDS011;4073;42.626;25.386;2022-10-16T15:17:21;4.23;;;3.83;;
8060;SDS011;4073;42.626;25.386;2022-10-16T15:19:47;6.57;;;4.67;;
8060;SDS011;4073;42.626;25.386;2022-10-16T15:22:12;6.17;;;4.13;;
8060;SDS011;4073;42.626;25.386;2022-10-16T15:24:38;5.77;;;4.27;;
8060;SDS011;4073;42.626;25.386;2022-10-16T15:27:03;7.60;;;3.93;;
8060;SDS011;4073;42.626;25.386;2022-10-16T15:29:29;4.60;;;3.80;;
8060;SDS011;4073;42.626;25.386;2022-10-16T15:31:54;5.80;;;4.50;;
8060;SDS011;4073;42.626;25.386;2022-10-16T15:34:19;4.17;;;3.80;;
8060;SDS011;4073;42.626;25.386;2022-10-16T15:36:45;4.73;;;3.70;;
8060;SDS011;4073;42.626;25.386;2022-10-16T15:41:41;4.13;;;3.70;;
8060;SDS011;4073;42.626;25.386;2022-10-16T15:44:07;4.93;;;4.00;;
8060;SDS011;4073;42.626;25.386;2022-10-16T15:46:33;3.87;;;3.30;;
8060;SDS011;4073;42.626;25.386;2022-10-16T15:48:59;4.47;;;3.90;;
8060;SDS011;4073;42.626;25.386;2022-10-16T15:51:26;4.93;;;4.00;;
8060;SDS011;4073;42.626;25.386;2022-10-16T15:53:57;5.77;;;4.30;;
8060;SDS011;4073;42.626;25.386;2022-10-16T15:56:23;3.87;;;3.47;;
8060;SDS011;4073;42.626;25.386;2022-10-16T15:58:51;5.17;;;3.93;;
8060;SDS011;4073;42.626;25.386;2022-10-16T16:01:17;7.10;;;4.43;;
8060;SDS011;4073;42.626;25.386;2022-10-16T16:03:42;6.43;;;4.40;;
8060;SDS011;4073;42.626;25.386;2022-10-16T16:06:10;8.53;;;4.77;;
8060;SDS011;4073;42.626;25.386;2022-10-16T16:08:38;5.70;;;4.30;;
8060;SDS011;4073;42.626;25.386;2022-10-16T16:11:11;5.70;;;4.70;;
8060;SDS011;4073;42.626;25.386;2022-10-16T16:13:39;5.80;;;4.07;;
8060;SDS011;4073;42.626;25.386;2022-10-16T16:16:14;6.30;;;4.30;;
8060;SDS011;4073;42.626;25.386;2022-10-16T16:18:42;5.37;;;4.40;;
8060;SDS011;4073;42.626;25.386;2022-10-16T16:21:08;4.70;;;4.17;;
8060;SDS011;4073;42.626;25.386;2022-10-16T16:23:35;7.43;;;4.63;;
8060;SDS011;4073;42.626;25.386;2022-10-16T16:28:29;8.10;;;5.77;;
8060;SDS011;4073;42.626;25.386;2022-10-16T16:30:55;6.43;;;4.67;;
8060;SDS011;4073;42.626;25.386;2022-10-16T16:33:20;8.30;;;5.50;;
8060;SDS011;4073;42.626;25.386;2022-10-16T16:35:46;6.77;;;5.40;;
8060;SDS011;4073;42.626;25.386;2022-10-16T16:38:11;7.83;;;5.13;;
8060;SDS011;4073;42.626;25.386;2022-10-16T16:40:37;5.93;;;4.80;;
8060;SDS011;4073;42.626;25.386;2022-10-16T16:43:02;6.27;;;4.67;;
8060;SDS011;4073;42.626;25.386;2022-10-16T16:45:29;7.63;;;5.80;;
8060;SDS011;4073;42.626;25.386;2022-10-16T16:47:54;9.23;;;6.93;;
8060;SDS011;4073;42.626;25.386;2022-10-16T16:50:20;11.57;;;6.90;;
8060;SDS011;4073;42.626;25.386;2022-10-16T16:52:45;11.27;;;5.77;;
8060;SDS011;4073;42.626;25.386;2022-10-16T16:55:11;5.83;;;5.20;;
8060;SDS011;4073;42.626;25.386;2022-10-16T16:57:36;5.77;;;5.17;;
8060;SDS011;4073;42.626;25.386;2022-10-16T17:00:02;7.93;;;5.30;;
8060;SDS011;4073;42.626;25.386;2022-10-16T17:02:28;8.10;;;6.27;;
8060;SDS011;4073;42.626;25.386;2022-10-16T17:04:54;6.00;;;5.50;;
8060;SDS011;4073;42.626;25.386;2022-10-16T17:07:21;7.23;;;5.03;;
8060;SDS011;4073;42.626;25.386;2022-10-16T17:09:47;5.37;;;4.83;;
8060;SDS011;4073;42.626;25.386;2022-10-16T17:12:12;6.83;;;5.97;;
8060;SDS011;4073;42.626;25.386;2022-10-16T17:14:38;6.83;;;5.63;;
8060;SDS011;4073;42.626;25.386;2022-10-16T17:17:03;6.30;;;5.70;;
8060;SDS011;4073;42.626;25.386;2022-10-16T17:19:31;6.93;;;4.93;;
8060;SDS011;4073;42.626;25.386;2022-10-16T17:21:57;10.07;;;5.17;;
8060;SDS011;4073;42.626;25.386;2022-10-16T17:24:22;5.90;;;4.53;;
8060;SDS011;4073;42.626;25.386;2022-10-16T17:26:48;5.43;;;4.93;;
8060;SDS011;4073;42.626;25.386;2022-10-16T17:29:14;6.67;;;5.73;;
8060;SDS011;4073;42.626;25.386;2022-10-16T17:31:42;5.90;;;5.23;;
8060;SDS011;4073;42.626;25.386;2022-10-16T17:34:07;9.80;;;5.83;;
8060;SDS011;4073;42.626;25.386;2022-10-16T17:36:36;6.67;;;5.27;;
8060;SDS011;4073;42.626;25.386;2022-10-16T17:39:04;5.30;;;4.80;;